sensor_id;sensor_type;location;lat;lon;timestamp;pressure;altitude;pressure_sealevel;temperature;humidity
23643;BME280;11998;55.788;37.572;2022-11-15T00:00:13;99701.47;;;1.56;100.00
23643;BME280;11998;55.788;37.572;2022-11-15T00:01:15;99711.69;;;1.44;100.00
23643;BME280;11998;55.788;37.572;2022-11-15T00:02:16;99700.31;;;1.40;100.00
23643;BME280;11998;55.788;37.572;2022-11-15T00:03:17;99706.50;;;1.47;100.00
23643;BME280;11998;55.788;37.572;2022-11-15T00:04:18;99702.28;;;1.52;100.00
23643;BME280;11998;55.788;37.572;2022-11-15T00:05:19;99697.06;;;1.54;100.00
23643;BME280;11998;55.788;37.572;2022-11-15T00:06:19;99698.84;;;1.55;100.00
23643;BME280;11998;55.788;37.572;2022-11-15T00:07:20;99697.94;;;1.54;100.00
23643;BME280;11998;55.788;37.572;2022-11-15T00:08:20;99695.41;;;1.59;100.00
23643;BME280;11998;55.788;37.572;2022-11-15T00:09:20;99696.91;;;1.44;100.00
23643;BME280;11998;55.788;37.572;2022-11-15T00:10:21;99696.94;;;1.46;100.00
23643;BME280;11998;55.788;37.572;2022-11-15T00:11:21;99698.72;;;1.48;100.00
23643;BME280;11998;55.788;37.572;2022-11-15T00:12:22;99692.59;;;1.48;100.00
23643;BME280;11998;55.788;37.572;2022-11-15T00:13:22;99692.50;;;1.40;100.00
23643;BME280;11998;55.788;37.572;2022-11-15T00:14:22;99693.22;;;1.33;100.00
23643;BME280;11998;55.788;37.572;2022-11-15T00:15:23;99693.88;;;1.23;100.00
23643;BME280;11998;55.788;37.572;2022-11-15T00:16:23;99692.88;;;1.15;100.00
23643;BME280;11998;55.788;37.572;2022-11-15T00:17:24;99682.56;;;1.23;100.00
23643;BME280;11998;55.788;37.572;2022-11-15T00:18:24;99676.63;;;1.28;100.00
23643;BME280;11998;55.788;37.572;2022-11-15T00:19:24;99681.72;;;1.24;100.00
23643;BME280;11998;55.788;37.572;2022-11-15T00:20:25;99685.16;;;1.21;100.00
23643;BME280;11998;55.788;37.572;2022-11-15T00:21:25;99684.38;;;1.25;100.00
23643;BME280;11998;55.788;37.572;2022-11-15T00:22:30;99681.72;;;1.24;100.00
23643;BME280;11998;55.788;37.572;2022-11-15T00:23:32;99687.00;;;1.25;100.00
23643;BME280;11998;55.788;37.572;2022-11-15T00:24:33;99684.22;;;1.17;100.00
23643;BME280;11998;55.788;37.572;2022-11-15T00:25:33;99688.53;;;1.15;100.00
23643;BME280;11998;55.788;37.572;2022-11-15T00:26:34;99686.91;;;1.21;100.00
23643;BME280;11998;55.788;37.572;2022-11-15T00:27:34;99686.06;;;1.23;100.00
23643;BME280;11998;55.788;37.572;2022-11-15T00:28:35;99685.19;;;1.23;100.00
23643;BME280;11998;55.788;37.572;2022-11-15T00:29:35;99679.09;;;1.22;100.00
23643;BME280;11998;55.788;37.572;2022-11-15T00:30:37;99685.16;;;1.21;100.00
23643;BME280;11998;55.788;37.572;2022-11-15T00:31:38;99682.56;;;1.21;100.00
23643;BME280;11998;55.788;37.572;2022-11-15T00:32:38;99686.06;;;1.23;100.00
23643;BME280;11998;55.788;37.572;2022-11-15T00:33:38;99680.97;;;1.29;100.00
23643;BME280;11998;55.788;37.572;2022-11-15T00:34:39;99674.94;;;1.32;100.00
23643;BME280;11998;55.788;37.572;2022-11-15T00:35:39;99667.16;;;1.36;100.00
23643;BME280;11998;55.788;37.572;2022-11-15T00:36:39;99668.84;;;1.31;100.00
23643;BME280;11998;55.788;37.572;2022-11-15T00:37:40;99674.09;;;1.34;100.00
23643;BME280;11998;55.788;37.572;2022-11-15T00:38:40;99675.72;;;1.26;100.00
23643;BME280;11998;55.788;37.572;2022-11-15T00:39:41;99677.41;;;1.24;100.00
23643;BME280;11998;55.788;37.572;2022-11-15T00:40:41;99671.28;;;1.24;100.00
23643;BME280;11998;55.788;37.572;2022-11-15T00:41:41;99677.25;;;1.15;100.00
23643;BME280;11998;55.788;37.572;2022-11-15T00:42:42;99662.47;;;1.15;100.00
23643;BME280;11998;55.788;37.572;2022-11-15T00:43:42;99665.03;;;1.14;100.00
23643;BME280;11998;55.788;37.572;2022-11-15T00:44:43;99659.88;;;1.17;100.00
23643;BME280;11998;55.788;37.572;2022-11-15T00:45:43;99665.03;;;1.14;100.00
23643;BME280;11998;55.788;37.572;2022-11-15T00:46:44;99663.16;;;1.07;100.00
23643;BME280;11998;55.788;37.572;2022-11-15T00:47:44;99674.41;;;1.04;100.00
23643;BME280;11998;55.788;37.572;2022-11-15T00:48:45;99660.56;;;1.08;100.00
23643;BME280;11998;55.788;37.572;2022-11-15T00:49:46;99665.03;;;1.14;100.00
23643;BME280;11998;55.788;37.572;2022-11-15T00:50:46;99660.53;;;1.05;100.00
23643;BME280;11998;55.788;37.572;2022-11-15T00:51:47;99657.94;;;1.07;100.00
23643;BME280;11998;55.788;37.572;2022-11-15T00:52:47;99656.31;;;1.12;100.00
23643;BME280;11998;55.788;37.572;2022-11-15T00:53:48;99656.25;;;1.09;100.00
23643;BME280;11998;55.788;37.572;2022-11-15T00:54:48;99647.31;;;0.98;100.00
23643;BME280;11998;55.788;37.572;2022-11-15T00:55:48;99656.19;;;1.06;100.00
23643;BME280;11998;55.788;37.572;2022-11-15T00:56:49;99648.38;;;1.06;100.00
23643;BME280;11998;55.788;37.572;2022-11-15T00:57:49;99647.41;;;1.01;100.00
23643;BME280;11998;55.788;37.572;2022-11-15T00:58:49;99651.81;;;1.03;100.00
23643;BME280;11998;55.788;37.572;2022-11-15T00:59:50;99650.16;;;1.10;100.00
23643;BME280;11998;55.788;37.572;2022-11-15T01:00:50;99647.53;;;1.08;100.00
23643;BME280;11998;55.788;37.572;2022-11-15T01:01:50;99651.09;;;1.12;100.00
23643;BME280;11998;55.788;37.572;2022-11-15T01:02:51;99651.22;;;1.20;100.00
23643;BME280;11998;55.788;37.572;2022-11-15T01:03:51;99644.31;;;1.23;100.00
23643;BME280;11998;55.788;37.572;2022-11-15T01:04:51;99642.56;;;1.22;100.00
23643;BME280;11998;55.788;37.572;2022-11-15T01:05:52;99640.81;;;1.21;100.00
23643;BME280;11998;55.788;37.572;2022-11-15T01:06:52;99637.34;;;1.22;100.00
23643;BME280;11998;55.788;37.572;2022-11-15T01:07:54;99637.44;;;1.25;100.00
23643;BME280;11998;55.788;37.572;2022-11-15T01:08:54;99639.97;;;1.22;100.00
23643;BME280;11998;55.788;37.572;2022-11-15T01:09:55;99634.72;;;1.21;100.00
23643;BME280;11998;55.788;37.572;2022-11-15T01:10:59;99634.75;;;1.24;100.00
23643;BME280;11998;55.788;37.572;2022-11-15T01:12:00;99640.81;;;1.21;100.00
23643;BME280;11998;55.788;37.572;2022-11-15T01:13:00;99637.47;;;1.28;100.00
23643;BME280;11998;55.788;37.572;2022-11-15T01:14:01;99638.41;;;1.32;100.00
23643;BME280;11998;55.788;37.572;2022-11-15T01:15:01;99645.41;;;1.34;100.00
23643;BME280;11998;55.788;37.572;2022-11-15T01:16:05;99638.41;;;1.32;100.00
23643;BME280;11998;55.788;37.572;2022-11-15T01:17:06;99630.63;;;1.36;100.00
23643;BME280;11998;55.788;37.572;2022-11-15T01:18:06;99626.34;;;1.38;100.00
23643;BME280;11998;55.788;37.572;2022-11-15T01:19:06;99623.78;;;1.41;100.00
23643;BME280;11998;55.788;37.572;2022-11-15T01:20:07;99632.53;;;1.43;100.00
23643;BME280;11998;55.788;37.572;2022-11-15T01:21:09;99630.75;;;1.42;100.00
23643;BME280;11998;55.788;37.572;2022-11-15T01:22:10;99622.06;;;1.43;100.00
23643;BME280;11998;55.788;37.572;2022-11-15T01:23:10;99616.84;;;1.43;100.00
23643;BME280;11998;55.788;37.572;2022-11-15T01:24:11;99617.66;;;1.39;100.00
23643;BME280;11998;55.788;37.572;2022-11-15T01:25:12;99626.22;;;1.32;100.00
23643;BME280;11998;55.788;37.572;2022-11-15T01:26:13;99625.28;;;1.27;100.00
23643;BME280;11998;55.788;37.572;2022-11-15T01:27:14;99618.19;;;1.20;100.00
23643;BME280;11998;55.788;37.572;2022-11-15T01:28:15;99623.44;;;1.23;100.00
23643;BME280;11998;55.788;37.572;2022-11-15T01:29:15;99625.25;;;1.26;100.00
23643;BME280;11998;55.788;37.572;2022-11-15T01:30:15;99625.28;;;1.27;100.00
23643;BME280;11998;55.788;37.572;2022-11-15T01:31:17;99615.72;;;1.28;100.00
23643;BME280;11998;55.788;37.572;2022-11-15T01:32:18;99625.25;;;1.24;100.00
23643;BME280;11998;55.788;37.572;2022-11-15T01:33:19;99625.28;;;1.27;100.00
23643;BME280;11998;55.788;37.572;2022-11-15T01:34:19;99628.75;;;1.26;100.00
23643;BME280;11998;55.788;37.572;2022-11-15T01:35:19;99625.13;;;1.18;100.00
23643;BME280;11998;55.788;37.572;2022-11-15T01:36:21;99623.41;;;1.20;100.00
23643;BME280;11998;55.788;37.572;2022-11-15T01:37:22;99619.91;;;1.18;100.00
23643;BME280;11998;55.788;37.572;2022-11-15T01:38:22;99621.81;;;1.27;100.00
23643;BME280;11998;55.788;37.572;2022-11-15T01:39:22;99620.97;;;1.29;100.00
23643;BME280;11998;55.788;37.572;2022-11-15T01:40:23;99616.59;;;1.28;100.00
23643;BME280;11998;55.788;37.572;2022-11-15T01:41:24;99613.88;;;1.22;100.00
23643;BME280;11998;55.788;37.572;2022-11-15T01:42:25;99616.25;;;1.08;100.00
23643;BME280;11998;55.788;37.572;2022-11-15T01:43:35;99611.88;;;1.07;100.00
23643;BME280;11998;55.788;37.572;2022-11-15T01:45:36;99617.75;;;0.96;100.00
23643;BME280;11998;55.788;37.572;2022-11-15T01:46:36;99614.44;;;1.04;100.00
23643;BME280;11998;55.788;37.572;2022-11-15T01:47:38;99617.03;;;1.04;100.00
23643;BME280;11998;55.788;37.572;2022-11-15T01:48:40;99613.53;;;1.02;100.00
23643;BME280;11998;55.788;37.572;2022-11-15T01:49:44;99619.63;;;1.03;100.00
23643;BME280;11998;55.788;37.572;2022-11-15T01:50:46;99626.44;;;0.96;100.00
23643;BME280;11998;55.788;37.572;2022-11-15T01:51:47;99610.69;;;0.88;100.00
23643;BME280;11998;55.788;37.572;2022-11-15T01:52:47;99616.00;;;0.95;100.00
23643;BME280;11998;55.788;37.572;2022-11-15T01:53:49;99612.47;;;0.93;100.00
23643;BME280;11998;55.788;37.572;2022-11-15T01:55:05;99619.50;;;0.97;100.00
23643;BME280;11998;55.788;37.572;2022-11-15T01:56:08;99619.59;;;1.00;100.00
23643;BME280;11998;55.788;37.572;2022-11-15T01:57:09;99617.75;;;0.96;100.00
23643;BME280;11998;55.788;37.572;2022-11-15T01:58:10;99622.97;;;0.96;100.00
23643;BME280;11998;55.788;37.572;2022-11-15T01:59:11;99621.16;;;0.92;100.00
23643;BME280;11998;55.788;37.572;2022-11-15T02:00:12;99616.00;;;0.95;100.00
23643;BME280;11998;55.788;37.572;2022-11-15T02:01:13;99615.94;;;0.92;100.00
23643;BME280;11998;55.788;37.572;2022-11-15T02:02:13;99617.66;;;0.90;100.00
23643;BME280;11998;55.788;37.572;2022-11-15T02:03:14;99614.19;;;0.91;100.00
23643;BME280;11998;55.788;37.572;2022-11-15T02:05:44;99611.53;;;0.87;100.00
23643;BME280;11998;55.788;37.572;2022-11-15T02:06:45;99610.78;;;0.95;100.00
23643;BME280;11998;55.788;37.572;2022-11-15T02:07:47;99609.03;;;0.95;100.00
23643;BME280;11998;55.788;37.572;2022-11-15T02:08:49;99612.53;;;0.96;100.00
23643;BME280;11998;55.788;37.572;2022-11-15T02:09:49;99612.44;;;0.90;100.00
23643;BME280;11998;55.788;37.572;2022-11-15T02:10:50;99616.78;;;0.91;100.00
23643;BME280;11998;55.788;37.572;2022-11-15T02:11:51;99605.50;;;0.92;100.00
23643;BME280;11998;55.788;37.572;2022-11-15T02:12:52;99619.28;;;0.86;100.00
23643;BME280;11998;55.788;37.572;2022-11-15T02:13:53;99611.44;;;0.84;100.00
23643;BME280;11998;55.788;37.572;2022-11-15T02:14:54;99611.44;;;0.84;100.00
23643;BME280;11998;55.788;37.572;2022-11-15T02:21:37;99610.56;;;0.84;100.00
23643;BME280;11998;55.788;37.572;2022-11-15T02:22:46;99615.81;;;0.85;100.00
23643;BME280;11998;55.788;37.572;2022-11-15T02:30:23;99604.53;;;0.86;100.00
23643;BME280;11998;55.788;37.572;2022-11-15T02:32:33;99607.22;;;0.90;100.00
23643;BME280;11998;55.788;37.572;2022-11-15T02:35:43;99610.78;;;0.95;100.00
23643;BME280;11998;55.788;37.572;2022-11-15T02:39:13;99603.84;;;0.97;100.00
23643;BME280;11998;55.788;37.572;2022-11-15T02:41:52;99599.63;;;1.02;100.00
23643;BME280;11998;55.788;37.572;2022-11-15T02:42:46;99605.75;;;1.04;100.00
23643;BME280;11998;55.788;37.572;2022-11-15T02:44:12;99604.94;;;1.09;100.00
23643;BME280;11998;55.788;37.572;2022-11-15T02:45:17;99603.16;;;1.07;100.00
23643;BME280;11998;55.788;37.572;2022-11-15T02:46:23;99595.41;;;1.10;100.00
23643;BME280;11998;55.788;37.572;2022-11-15T02:47:45;99599.72;;;1.09;100.00
23643;BME280;11998;55.788;37.572;2022-11-15T02:48:48;99602.31;;;1.08;100.00
23643;BME280;11998;55.788;37.572;2022-11-15T02:49:52;99599.69;;;1.06;100.00
23643;BME280;11998;55.788;37.572;2022-11-15T02:50:54;99599.63;;;1.03;100.00
23643;BME280;11998;55.788;37.572;2022-11-15T02:51:54;99594.44;;;1.05;100.00
23643;BME280;11998;55.788;37.572;2022-11-15T02:52:55;99598.84;;;1.09;100.00
23643;BME280;11998;55.788;37.572;2022-11-15T02:53:56;99588.16;;;0.94;100.00
23643;BME280;11998;55.788;37.572;2022-11-15T02:54:57;99590.78;;;0.95;100.00
23643;BME280;11998;55.788;37.572;2022-11-15T02:55:58;99591.78;;;1.02;100.00
23643;BME280;11998;55.788;37.572;2022-11-15T02:57:03;99588.16;;;0.94;100.00
23643;BME280;11998;55.788;37.572;2022-11-15T02:58:14;99588.19;;;0.95;100.00
23643;BME280;11998;55.788;37.572;2022-11-15T02:59:23;99590.81;;;0.97;100.00
23643;BME280;11998;55.788;37.572;2022-11-15T03:00:31;99587.38;;;0.99;100.00
23643;BME280;11998;55.788;37.572;2022-11-15T03:04:23;99586.56;;;1.02;100.00
23643;BME280;11998;55.788;37.572;2022-11-15T03:06:38;99584.91;;;1.07;100.00
23643;BME280;11998;55.788;37.572;2022-11-15T03:08:06;99584.91;;;1.07;100.00
23643;BME280;11998;55.788;37.572;2022-11-15T03:10:12;99570.94;;;1.02;100.00
23643;BME280;11998;55.788;37.572;2022-11-15T03:11:16;99569.31;;;1.10;100.00
23643;BME280;11998;55.788;37.572;2022-11-15T03:13:24;99562.56;;;1.21;100.00
23643;BME280;11998;55.788;37.572;2022-11-15T03:14:30;99557.28;;;1.18;100.00
23643;BME280;11998;55.788;37.572;2022-11-15T03:15:36;99564.25;;;1.19;100.00
23643;BME280;11998;55.788;37.572;2022-11-15T03:17:49;99564.31;;;1.22;100.00
23643;BME280;11998;55.788;37.572;2022-11-15T03:18:59;99565.16;;;1.21;100.00
23643;BME280;11998;55.788;37.572;2022-11-15T03:20:06;99573.72;;;1.12;100.00
23643;BME280;11998;55.788;37.572;2022-11-15T03:21:08;99576.44;;;1.20;100.00
23643;BME280;11998;55.788;37.572;2022-11-15T03:22:11;99570.28;;;1.15;100.00
23643;BME280;11998;55.788;37.572;2022-11-15T03:23:12;99569.28;;;1.07;100.00
23643;BME280;11998;55.788;37.572;2022-11-15T03:24:13;99570.16;;;1.09;100.00
23643;BME280;11998;55.788;37.572;2022-11-15T03:25:18;99560.59;;;1.08;100.00
23643;BME280;11998;55.788;37.572;2022-11-15T03:26:20;99569.41;;;1.13;100.00
23643;BME280;11998;55.788;37.572;2022-11-15T03:27:24;99572.84;;;1.12;100.00
23643;BME280;11998;55.788;37.572;2022-11-15T03:28:41;99575.34;;;1.06;100.00
23643;BME280;11998;55.788;37.572;2022-11-15T03:29:44;99572.72;;;1.06;100.00
23643;BME280;11998;55.788;37.572;2022-11-15T03:30:46;99570.06;;;1.01;100.00
23643;BME280;11998;55.788;37.572;2022-11-15T03:31:51;99567.34;;;0.97;100.00
23643;BME280;11998;55.788;37.572;2022-11-15T03:32:55;99570.94;;;1.02;100.00
23643;BME280;11998;55.788;37.572;2022-11-15T03:33:56;99570.81;;;0.97;100.00
23643;BME280;11998;55.788;37.572;2022-11-15T03:34:58;99571.72;;;0.99;100.00
23643;BME280;11998;55.788;37.572;2022-11-15T03:36:00;99573.59;;;1.05;100.00
23643;BME280;11998;55.788;37.572;2022-11-15T03:37:00;99570.81;;;0.96;100.00
23643;BME280;11998;55.788;37.572;2022-11-15T03:39:13;99568.19;;;0.94;100.00
23643;BME280;11998;55.788;37.572;2022-11-15T03:40:14;99565.59;;;0.96;100.00
23643;BME280;11998;55.788;37.572;2022-11-15T03:41:17;99566.31;;;0.87;100.00
23643;BME280;11998;55.788;37.572;2022-11-15T03:42:22;99567.13;;;0.84;100.00
23643;BME280;11998;55.788;37.572;2022-11-15T03:44:32;99568.97;;;0.88;100.00
23643;BME280;11998;55.788;37.572;2022-11-15T03:45:43;99570.63;;;0.86;100.00
23643;BME280;11998;55.788;37.572;2022-11-15T03:46:56;99564.59;;;0.87;100.00
23643;BME280;11998;55.788;37.572;2022-11-15T03:49:44;99567.13;;;0.84;100.00
23643;BME280;11998;55.788;37.572;2022-11-15T03:50:19;99567.06;;;0.81;100.00
23643;BME280;11998;55.788;37.572;2022-11-15T03:51:20;99553.09;;;0.76;100.00
23643;BME280;11998;55.788;37.572;2022-11-15T03:52:21;99561.72;;;0.74;100.00
23643;BME280;11998;55.788;37.572;2022-11-15T03:53:21;99559.00;;;0.68;100.00
23643;BME280;11998;55.788;37.572;2022-11-15T03:54:22;99555.56;;;0.70;100.00
23643;BME280;11998;55.788;37.572;2022-11-15T03:55:22;99557.38;;;0.74;100.00
23643;BME280;11998;55.788;37.572;2022-11-15T03:56:23;99565.28;;;0.77;100.00
23643;BME280;11998;55.788;37.572;2022-11-15T03:57:23;99553.00;;;0.73;100.00
23643;BME280;11998;55.788;37.572;2022-11-15T03:58:24;99559.16;;;0.75;100.00
23643;BME280;11998;55.788;37.572;2022-11-15T03:59:24;99555.69;;;0.76;100.00
23643;BME280;11998;55.788;37.572;2022-11-15T04:00:24;99557.44;;;0.77;100.00
23643;BME280;11998;55.788;37.572;2022-11-15T04:01:25;99547.78;;;0.73;100.00
23643;BME280;11998;55.788;37.572;2022-11-15T04:02:25;99554.75;;;0.74;100.00
23643;BME280;11998;55.788;37.572;2022-11-15T04:03:26;99553.09;;;0.76;100.00
23643;BME280;11998;55.788;37.572;2022-11-15T04:04:26;99553.00;;;0.73;100.00
23643;BME280;11998;55.788;37.572;2022-11-15T04:05:26;99556.47;;;0.72;100.00
23643;BME280;11998;55.788;37.572;2022-11-15T04:06:27;99553.84;;;0.71;100.00
23643;BME280;11998;55.788;37.572;2022-11-15T04:07:27;99551.34;;;0.75;100.00
23643;BME280;11998;55.788;37.572;2022-11-15T04:08:27;99550.34;;;0.70;100.00
23643;BME280;11998;55.788;37.572;2022-11-15T04:09:28;99545.97;;;0.68;100.00
23643;BME280;11998;55.788;37.572;2022-11-15T04:10:29;99548.59;;;0.69;100.00
23643;BME280;11998;55.788;37.572;2022-11-15T04:11:29;99555.53;;;0.69;100.00
23643;BME280;11998;55.788;37.572;2022-11-15T04:12:30;99550.34;;;0.70;100.00
23643;BME280;11998;55.788;37.572;2022-11-15T04:13:31;99545.94;;;0.66;100.00
23643;BME280;11998;55.788;37.572;2022-11-15T04:14:31;99546.00;;;0.69;100.00
23643;BME280;11998;55.788;37.572;2022-11-15T04:15:32;99546.91;;;0.71;100.00
23643;BME280;11998;55.788;37.572;2022-11-15T04:16:32;99543.34;;;0.66;100.00
23643;BME280;11998;55.788;37.572;2022-11-15T04:17:43;99542.31;;;0.58;100.00
23643;BME280;11998;55.788;37.572;2022-11-15T04:18:44;99547.56;;;0.61;100.00
23643;BME280;11998;55.788;37.572;2022-11-15T04:19:44;99549.28;;;0.59;100.00
23643;BME280;11998;55.788;37.572;2022-11-15T04:21:03;99545.75;;;0.57;100.00
23643;BME280;11998;55.788;37.572;2022-11-15T04:22:22;99549.19;;;0.53;100.00
23643;BME280;11998;55.788;37.572;2022-11-15T04:23:43;99549.13;;;0.50;100.00
23643;BME280;11998;55.788;37.572;2022-11-15T04:25:06;99547.44;;;0.53;100.00
23643;BME280;11998;55.788;37.572;2022-11-15T04:26:08;99542.22;;;0.53;100.00
23643;BME280;11998;55.788;37.572;2022-11-15T04:27:10;99547.66;;;0.64;100.00
23643;BME280;11998;55.788;37.572;2022-11-15T04:28:13;99546.84;;;0.68;100.00
23643;BME280;11998;55.788;37.572;2022-11-15T04:29:13;99544.28;;;0.71;100.00
23643;BME280;11998;55.788;37.572;2022-11-15T04:30:32;99542.53;;;0.70;100.00
23643;BME280;11998;55.788;37.572;2022-11-15T04:31:32;99546.03;;;0.72;100.00
23643;BME280;11998;55.788;37.572;2022-11-15T04:32:32;99543.53;;;0.75;100.00
23643;BME280;11998;55.788;37.572;2022-11-15T04:33:33;99540.97;;;0.78;100.00
23643;BME280;11998;55.788;37.572;2022-11-15T04:34:33;99541.00;;;0.81;100.00
23643;BME280;11998;55.788;37.572;2022-11-15T04:35:34;99540.19;;;0.84;100.00
23643;BME280;11998;55.788;37.572;2022-11-15T04:36:34;99541.69;;;0.71;100.00
23643;BME280;11998;55.788;37.572;2022-11-15T04:37:53;99544.28;;;0.71;100.00
23643;BME280;11998;55.788;37.572;2022-11-15T04:38:54;99539.13;;;0.74;100.00
23643;BME280;11998;55.788;37.572;2022-11-15T04:39:54;99541.72;;;0.74;100.00
23643;BME280;11998;55.788;37.572;2022-11-15T04:40:55;99540.84;;;0.72;100.00
23643;BME280;11998;55.788;37.572;2022-11-15T04:41:55;99537.28;;;0.67;100.00
23643;BME280;11998;55.788;37.572;2022-11-15T04:42:55;99539.88;;;0.67;100.00
23643;BME280;11998;55.788;37.572;2022-11-15T04:43:55;99532.09;;;0.70;100.00
23643;BME280;11998;55.788;37.572;2022-11-15T04:44:56;99530.34;;;0.69;100.00
23643;BME280;11998;55.788;37.572;2022-11-15T04:45:56;99528.69;;;0.74;100.00
23643;BME280;11998;55.788;37.572;2022-11-15T04:46:57;99527.03;;;0.76;100.00
23643;BME280;11998;55.788;37.572;2022-11-15T04:47:57;99523.63;;;0.80;100.00
23643;BME280;11998;55.788;37.572;2022-11-15T04:48:57;99526.38;;;0.88;100.00
23643;BME280;11998;55.788;37.572;2022-11-15T04:49:58;99521.91;;;0.82;100.00
23643;BME280;11998;55.788;37.572;2022-11-15T04:50:58;99518.47;;;0.85;100.00
23643;BME280;11998;55.788;37.572;2022-11-15T04:51:58;99520.97;;;0.79;100.00
23643;BME280;11998;55.788;37.572;2022-11-15T04:52:59;99515.66;;;0.74;100.00
23643;BME280;11998;55.788;37.572;2022-11-15T04:53:59;99522.50;;;0.66;100.00
23643;BME280;11998;55.788;37.572;2022-11-15T04:55:00;99517.31;;;0.69;100.00
23643;BME280;11998;55.788;37.572;2022-11-15T04:56:00;99516.53;;;0.73;100.00
23643;BME280;11998;55.788;37.572;2022-11-15T04:57:00;99519.97;;;0.72;100.00
23643;BME280;11998;55.788;37.572;2022-11-15T04:58:01;99520.84;;;0.73;100.00
23643;BME280;11998;55.788;37.572;2022-11-15T04:59:01;99524.44;;;0.78;100.00
23643;BME280;11998;55.788;37.572;2022-11-15T05:00:03;99528.81;;;0.80;100.00
23643;BME280;11998;55.788;37.572;2022-11-15T05:01:11;99521.91;;;0.82;100.00
23643;BME280;11998;55.788;37.572;2022-11-15T05:02:14;99517.63;;;0.86;100.00
23643;BME280;11998;55.788;37.572;2022-11-15T05:03:14;99515.94;;;0.88;100.00
23643;BME280;11998;55.788;37.572;2022-11-15T05:04:33;99527.25;;;0.88;100.00
23643;BME280;11998;55.788;37.572;2022-11-15T05:05:33;99521.94;;;0.85;100.00
23643;BME280;11998;55.788;37.572;2022-11-15T05:06:34;99521.03;;;0.82;100.00
23643;BME280;11998;55.788;37.572;2022-11-15T05:07:34;99520.19;;;0.84;100.00
23643;BME280;11998;55.788;37.572;2022-11-15T05:08:34;99523.69;;;0.86;100.00
23643;BME280;11998;55.788;37.572;2022-11-15T05:09:35;99515.97;;;0.90;100.00
23643;BME280;11998;55.788;37.572;2022-11-15T05:10:36;99515.09;;;0.91;100.00
23643;BME280;11998;55.788;37.572;2022-11-15T05:11:36;99519.41;;;0.88;100.00
23643;BME280;11998;55.788;37.572;2022-11-15T05:12:37;99515.81;;;0.82;100.00
23643;BME280;11998;55.788;37.572;2022-11-15T05:13:37;99521.94;;;0.85;100.00
23643;BME280;11998;55.788;37.572;2022-11-15T05:14:38;99519.44;;;0.90;100.00
23643;BME280;11998;55.788;37.572;2022-11-15T05:15:38;99512.47;;;0.89;100.00
23643;BME280;11998;55.788;37.572;2022-11-15T05:16:39;99515.09;;;0.91;100.00
23643;BME280;11998;55.788;37.572;2022-11-15T05:17:39;99511.63;;;0.90;100.00
23643;BME280;11998;55.788;37.572;2022-11-15T05:18:39;99518.63;;;0.93;100.00
23643;BME280;11998;55.788;37.572;2022-11-15T05:19:42;99510.72;;;0.88;100.00
23643;BME280;11998;55.788;37.572;2022-11-15T05:20:44;99512.50;;;0.91;100.00
23643;BME280;11998;55.788;37.572;2022-11-15T05:21:44;99509.91;;;0.92;100.00
23643;BME280;11998;55.788;37.572;2022-11-15T05:22:45;99509.03;;;0.92;100.00
23643;BME280;11998;55.788;37.572;2022-11-15T05:23:45;99509.91;;;0.91;100.00
23643;BME280;11998;55.788;37.572;2022-11-15T05:24:46;99501.25;;;0.95;100.00
23643;BME280;11998;55.788;37.572;2022-11-15T05:25:46;99504.75;;;0.97;100.00
23643;BME280;11998;55.788;37.572;2022-11-15T05:26:46;99496.09;;;0.98;100.00
23643;BME280;11998;55.788;37.572;2022-11-15T05:27:47;99500.44;;;0.97;100.00
23643;BME280;11998;55.788;37.572;2022-11-15T05:28:51;99508.28;;;0.99;100.00
23643;BME280;11998;55.788;37.572;2022-11-15T05:29:52;99497.75;;;0.93;100.00
23643;BME280;11998;55.788;37.572;2022-11-15T05:30:52;99497.75;;;0.93;100.00
23643;BME280;11998;55.788;37.572;2022-11-15T05:31:52;99494.28;;;0.94;100.00
23643;BME280;11998;55.788;37.572;2022-11-15T05:32:53;99495.28;;;1.00;100.00
23643;BME280;11998;55.788;37.572;2022-11-15T05:33:54;99497.91;;;1.02;100.00
23643;BME280;11998;55.788;37.572;2022-11-15T05:34:55;99506.69;;;1.07;100.00
23643;BME280;11998;55.788;37.572;2022-11-15T05:35:57;99501.41;;;1.02;100.00
23643;BME280;11998;55.788;37.572;2022-11-15T05:37:00;99497.78;;;0.96;100.00
23643;BME280;11998;55.788;37.572;2022-11-15T05:38:00;99499.53;;;0.97;100.00
23643;BME280;11998;55.788;37.572;2022-11-15T05:39:01;99507.50;;;1.04;100.00
23643;BME280;11998;55.788;37.572;2022-11-15T05:40:01;99511.03;;;1.06;100.00
23643;BME280;11998;55.788;37.572;2022-11-15T05:41:02;99497.97;;;1.06;100.00
23643;BME280;11998;55.788;37.572;2022-11-15T05:43:07;99497.91;;;1.02;100.00
23643;BME280;11998;55.788;37.572;2022-11-15T05:44:09;99498.00;;;1.08;100.00
23643;BME280;11998;55.788;37.572;2022-11-15T05:45:10;99499.75;;;1.09;100.00
23643;BME280;11998;55.788;37.572;2022-11-15T05:46:11;99494.59;;;1.12;100.00
23643;BME280;11998;55.788;37.572;2022-11-15T05:47:14;99496.38;;;1.13;100.00
23643;BME280;11998;55.788;37.572;2022-11-15T05:48:16;99487.75;;;1.20;100.00
23643;BME280;11998;55.788;37.572;2022-11-15T05:49:17;99493.00;;;1.23;100.00
23643;BME280;11998;55.788;37.572;2022-11-15T05:50:19;99490.53;;;1.29;100.00
23643;BME280;11998;55.788;37.572;2022-11-15T05:51:20;99489.59;;;1.24;100.00
23643;BME280;11998;55.788;37.572;2022-11-15T05:52:23;99491.34;;;1.25;100.00
23643;BME280;11998;55.788;37.572;2022-11-15T05:53:25;99486.13;;;1.25;100.00
23643;BME280;11998;55.788;37.572;2022-11-15T05:54:26;99496.44;;;1.19;100.00
23643;BME280;11998;55.788;37.572;2022-11-15T05:55:26;99489.47;;;1.18;100.00
23643;BME280;11998;55.788;37.572;2022-11-15T05:56:27;99489.50;;;1.21;100.00
23643;BME280;11998;55.788;37.572;2022-11-15T05:57:28;99492.97;;;1.20;100.00
23643;BME280;11998;55.788;37.572;2022-11-15T05:58:30;99493.81;;;1.17;100.00